sensor_id;sensor_type;location;lat;lon;timestamp;temperature;humidity
796;DHT22;381;48.770;9.188;2023-02-15T00:01:08;3.80;99.90
796;DHT22;381;48.770;9.188;2023-02-15T00:06:11;3.60;99.90
796;DHT22;381;48.770;9.188;2023-02-15T00:11:15;3.60;99.90
796;DHT22;381;48.770;9.188;2023-02-15T00:16:18;3.60;99.90
796;DHT22;381;48.770;9.188;2023-02-15T00:21:20;3.60;99.90
796;DHT22;381;48.770;9.188;2023-02-15T00:26:22;3.60;99.90
796;DHT22;381;48.770;9.188;2023-02-15T00:31:27;3.60;99.90
796;DHT22;381;48.770;9.188;2023-02-15T00:36:31;3.60;99.90
796;DHT22;381;48.770;9.188;2023-02-15T00:41:33;3.50;99.90
796;DHT22;381;48.770;9.188;2023-02-15T00:46:37;3.50;99.90
796;DHT22;381;48.770;9.188;2023-02-15T00:51:39;3.50;99.90
796;DHT22;381;48.770;9.188;2023-02-15T00:56:41;3.50;99.90
796;DHT22;381;48.770;9.188;2023-02-15T01:01:44;3.50;99.90
796;DHT22;381;48.770;9.188;2023-02-15T01:06:46;3.50;99.90
796;DHT22;381;48.770;9.188;2023-02-15T01:11:48;3.50;99.90
796;DHT22;381;48.770;9.188;2023-02-15T01:16:52;3.50;99.90
796;DHT22;381;48.770;9.188;2023-02-15T01:21:54;3.40;99.90
796;DHT22;381;48.770;9.188;2023-02-15T01:26:56;3.40;99.90
796;DHT22;381;48.770;9.188;2023-02-15T01:32:02;3.40;99.90
796;DHT22;381;48.770;9.188;2023-02-15T01:37:05;3.30;99.90
796;DHT22;381;48.770;9.188;2023-02-15T01:42:09;3.30;99.90
796;DHT22;381;48.770;9.188;2023-02-15T01:52:50;3.40;99.90
796;DHT22;381;48.770;9.188;2023-02-15T01:57:54;3.20;99.90
796;DHT22;381;48.770;9.188;2023-02-15T02:03:11;3.10;99.90
796;DHT22;381;48.770;9.188;2023-02-15T02:08:25;3.10;99.90
796;DHT22;381;48.770;9.188;2023-02-15T02:13:28;3.20;99.90
796;DHT22;381;48.770;9.188;2023-02-15T02:18:41;3.30;99.90
796;DHT22;381;48.770;9.188;2023-02-15T02:24:07;3.20;99.90
796;DHT22;381;48.770;9.188;2023-02-15T02:34:59;3.20;99.90
796;DHT22;381;48.770;9.188;2023-02-15T02:40:19;3.20;99.90
796;DHT22;381;48.770;9.188;2023-02-15T02:45:25;3.20;99.90
796;DHT22;381;48.770;9.188;2023-02-15T02:50:31;3.20;99.90
796;DHT22;381;48.770;9.188;2023-02-15T02:55:36;3.20;99.90
796;DHT22;381;48.770;9.188;2023-02-15T03:00:44;3.20;99.90
796;DHT22;381;48.770;9.188;2023-02-15T03:05:50;3.20;99.90
796;DHT22;381;48.770;9.188;2023-02-15T03:10:57;3.20;99.90
796;DHT22;381;48.770;9.188;2023-02-15T03:16:01;3.20;99.90
796;DHT22;381;48.770;9.188;2023-02-15T03:21:27;3.20;99.90
796;DHT22;381;48.770;9.188;2023-02-15T03:26:33;3.10;99.90
796;DHT22;381;48.770;9.188;2023-02-15T03:31:38;3.10;99.90
796;DHT22;381;48.770;9.188;2023-02-15T03:36:49;3.10;99.90
796;DHT22;381;48.770;9.188;2023-02-15T03:41:58;3.00;99.90
796;DHT22;381;48.770;9.188;2023-02-15T03:47:04;3.00;99.90
796;DHT22;381;48.770;9.188;2023-02-15T03:52:10;3.00;99.90
796;DHT22;381;48.770;9.188;2023-02-15T03:57:16;3.00;99.90
796;DHT22;381;48.770;9.188;2023-02-15T04:03:19;3.00;99.90
796;DHT22;381;48.770;9.188;2023-02-15T04:08:25;3.00;99.90
796;DHT22;381;48.770;9.188;2023-02-15T04:13:47;3.00;99.90
796;DHT22;381;48.770;9.188;2023-02-15T04:18:57;3.00;99.90
796;DHT22;381;48.770;9.188;2023-02-15T04:24:18;3.00;99.90
796;DHT22;381;48.770;9.188;2023-02-15T04:29:37;3.00;99.90
796;DHT22;381;48.770;9.188;2023-02-15T04:34:39;2.90;99.90
796;DHT22;381;48.770;9.188;2023-02-15T04:39:42;2.90;99.90
796;DHT22;381;48.770;9.188;2023-02-15T04:44:45;2.80;99.90
796;DHT22;381;48.770;9.188;2023-02-15T04:49:47;2.90;99.90
796;DHT22;381;48.770;9.188;2023-02-15T04:54:50;2.90;99.90
796;DHT22;381;48.770;9.188;2023-02-15T04:59:52;2.80;99.90
796;DHT22;381;48.770;9.188;2023-02-15T05:04:54;2.80;99.90
796;DHT22;381;48.770;9.188;2023-02-15T05:09:57;2.80;99.90
796;DHT22;381;48.770;9.188;2023-02-15T05:14:59;2.80;99.90
796;DHT22;381;48.770;9.188;2023-02-15T05:20:02;2.80;99.90
796;DHT22;381;48.770;9.188;2023-02-15T05:25:06;2.80;99.90
796;DHT22;381;48.770;9.188;2023-02-15T05:30:25;2.80;99.90
796;DHT22;381;48.770;9.188;2023-02-15T05:35:27;2.80;99.90
796;DHT22;381;48.770;9.188;2023-02-15T05:40:31;2.70;99.90
796;DHT22;381;48.770;9.188;2023-02-15T05:45:33;2.70;99.80
796;DHT22;381;48.770;9.188;2023-02-15T05:50:35;2.70;99.90
796;DHT22;381;48.770;9.188;2023-02-15T05:55:39;2.60;99.90
796;DHT22;381;48.770;9.188;2023-02-15T06:00:41;2.60;99.90
796;DHT22;381;48.770;9.188;2023-02-15T06:05:43;2.60;99.90
796;DHT22;381;48.770;9.188;2023-02-15T06:10:46;2.60;99.90
796;DHT22;381;48.770;9.188;2023-02-15T06:15:49;2.60;99.90
796;DHT22;381;48.770;9.188;2023-02-15T06:20:51;2.60;99.90
796;DHT22;381;48.770;9.188;2023-02-15T06:25:54;2.60;99.90
796;DHT22;381;48.770;9.188;2023-02-15T06:30:56;2.70;99.90
796;DHT22;381;48.770;9.188;2023-02-15T06:35:58;2.70;99.90
796;DHT22;381;48.770;9.188;2023-02-15T06:41:02;2.70;99.90
796;DHT22;381;48.770;9.188;2023-02-15T06:46:04;2.70;99.90
796;DHT22;381;48.770;9.188;2023-02-15T06:51:08;2.80;99.90
796;DHT22;381;48.770;9.188;2023-02-15T06:56:12;2.80;99.90
796;DHT22;381;48.770;9.188;2023-02-15T07:01:14;2.80;99.90
796;DHT22;381;48.770;9.188;2023-02-15T07:06:16;2.90;99.90
796;DHT22;381;48.770;9.188;2023-02-15T07:11:19;3.00;99.90
796;DHT22;381;48.770;9.188;2023-02-15T07:16:39;3.00;99.90
796;DHT22;381;48.770;9.188;2023-02-15T07:21:41;3.00;99.90
796;DHT22;381;48.770;9.188;2023-02-15T07:26:44;3.10;99.90
796;DHT22;381;48.770;9.188;2023-02-15T07:31:46;3.10;99.90
796;DHT22;381;48.770;9.188;2023-02-15T07:36:50;3.10;99.90
796;DHT22;381;48.770;9.188;2023-02-15T07:41:55;3.20;99.90
796;DHT22;381;48.770;9.188;2023-02-15T07:47:04;3.20;99.90
796;DHT22;381;48.770;9.188;2023-02-15T07:52:06;3.10;99.90
796;DHT22;381;48.770;9.188;2023-02-15T07:57:10;3.20;99.90
796;DHT22;381;48.770;9.188;2023-02-15T08:02:15;3.20;99.90
796;DHT22;381;48.770;9.188;2023-02-15T08:07:17;3.30;99.90
796;DHT22;381;48.770;9.188;2023-02-15T08:12:21;3.30;99.90
796;DHT22;381;48.770;9.188;2023-02-15T08:17:23;3.30;99.90
796;DHT22;381;48.770;9.188;2023-02-15T08:22:26;3.30;99.90
796;DHT22;381;48.770;9.188;2023-02-15T08:27:29;3.40;99.90
796;DHT22;381;48.770;9.188;2023-02-15T08:32:31;3.40;99.90
796;DHT22;381;48.770;9.188;2023-02-15T08:37:33;3.50;99.90
796;DHT22;381;48.770;9.188;2023-02-15T08:42:37;3.50;99.90
796;DHT22;381;48.770;9.188;2023-02-15T08:47:39;3.60;99.90
796;DHT22;381;48.770;9.188;2023-02-15T08:52:41;3.60;99.90
796;DHT22;381;48.770;9.188;2023-02-15T08:57:44;3.70;99.90
796;DHT22;381;48.770;9.188;2023-02-15T09:02:47;3.90;99.90
796;DHT22;381;48.770;9.188;2023-02-15T09:07:49;4.00;99.90
796;DHT22;381;48.770;9.188;2023-02-15T09:12:53;4.10;99.90
796;DHT22;381;48.770;9.188;2023-02-15T09:17:55;4.30;99.90
796;DHT22;381;48.770;9.188;2023-02-15T09:22:59;4.40;99.90
796;DHT22;381;48.770;9.188;2023-02-15T09:28:03;4.60;99.90
796;DHT22;381;48.770;9.188;2023-02-15T09:33:05;4.70;99.90
796;DHT22;381;48.770;9.188;2023-02-15T09:38:07;4.90;99.90
796;DHT22;381;48.770;9.188;2023-02-15T09:43:21;5.00;99.70
796;DHT22;381;48.770;9.188;2023-02-15T09:48:41;5.20;99.60
796;DHT22;381;48.770;9.188;2023-02-15T09:53:54;5.30;99.30
796;DHT22;381;48.770;9.188;2023-02-15T09:59:07;5.50;99.30
796;DHT22;381;48.770;9.188;2023-02-15T10:04:24;5.60;98.90
796;DHT22;381;48.770;9.188;2023-02-15T10:09:59;5.70;98.90
796;DHT22;381;48.770;9.188;2023-02-15T10:15:27;5.70;98.70
796;DHT22;381;48.770;9.188;2023-02-15T10:20:39;5.70;98.50
796;DHT22;381;48.770;9.188;2023-02-15T10:25:47;5.70;98.60
796;DHT22;381;48.770;9.188;2023-02-15T10:30:59;5.60;98.50
796;DHT22;381;48.770;9.188;2023-02-15T10:36:13;5.50;98.90
796;DHT22;381;48.770;9.188;2023-02-15T10:41:29;5.50;98.70
796;DHT22;381;48.770;9.188;2023-02-15T10:46:50;5.50;98.70
796;DHT22;381;48.770;9.188;2023-02-15T10:52:09;5.40;99.00
796;DHT22;381;48.770;9.188;2023-02-15T10:57:20;5.50;99.60
796;DHT22;381;48.770;9.188;2023-02-15T11:02:34;5.50;99.30
796;DHT22;381;48.770;9.188;2023-02-15T11:07:43;5.60;99.70
796;DHT22;381;48.770;9.188;2023-02-15T11:12:48;5.60;99.70
796;DHT22;381;48.770;9.188;2023-02-15T11:18:01;5.70;99.70
796;DHT22;381;48.770;9.188;2023-02-15T11:23:12;5.70;99.60
796;DHT22;381;48.770;9.188;2023-02-15T11:28:20;5.80;99.70
796;DHT22;381;48.770;9.188;2023-02-15T11:33:29;5.90;99.80
796;DHT22;381;48.770;9.188;2023-02-15T11:38:32;6.00;99.90
796;DHT22;381;48.770;9.188;2023-02-15T11:43:38;6.10;99.60
796;DHT22;381;48.770;9.188;2023-02-15T11:48:42;6.20;99.90
796;DHT22;381;48.770;9.188;2023-02-15T11:53:45;6.20;99.90
796;DHT22;381;48.770;9.188;2023-02-15T11:58:51;6.30;99.90
796;DHT22;381;48.770;9.188;2023-02-15T12:03:58;6.40;99.90
796;DHT22;381;48.770;9.188;2023-02-15T12:09:06;6.50;99.90
796;DHT22;381;48.770;9.188;2023-02-15T12:14:13;6.60;99.60
796;DHT22;381;48.770;9.188;2023-02-15T12:19:30;6.60;99.80
796;DHT22;381;48.770;9.188;2023-02-15T12:24:36;6.70;99.70
796;DHT22;381;48.770;9.188;2023-02-15T12:29:42;6.80;99.70
796;DHT22;381;48.770;9.188;2023-02-15T12:34:47;6.90;99.70
796;DHT22;381;48.770;9.188;2023-02-15T12:39:53;6.90;99.70
796;DHT22;381;48.770;9.188;2023-02-15T12:44:58;7.00;99.70
796;DHT22;381;48.770;9.188;2023-02-15T12:50:12;7.10;99.60
796;DHT22;381;48.770;9.188;2023-02-15T12:55:22;7.10;99.90
796;DHT22;381;48.770;9.188;2023-02-15T13:00:29;7.20;99.50
796;DHT22;381;48.770;9.188;2023-02-15T13:05:36;7.40;99.30
796;DHT22;381;48.770;9.188;2023-02-15T13:10:41;7.40;99.80
796;DHT22;381;48.770;9.188;2023-02-15T13:15:48;7.40;99.90
796;DHT22;381;48.770;9.188;2023-02-15T13:20:52;7.50;99.90
796;DHT22;381;48.770;9.188;2023-02-15T13:25:56;7.50;99.90
796;DHT22;381;48.770;9.188;2023-02-15T13:30:59;7.60;99.90
796;DHT22;381;48.770;9.188;2023-02-15T13:36:08;7.60;99.90
796;DHT22;381;48.770;9.188;2023-02-15T13:41:15;7.70;99.90
796;DHT22;381;48.770;9.188;2023-02-15T13:46:24;7.70;99.60
796;DHT22;381;48.770;9.188;2023-02-15T13:51:37;7.80;99.90
796;DHT22;381;48.770;9.188;2023-02-15T13:56:49;7.80;99.80
796;DHT22;381;48.770;9.188;2023-02-15T14:01:57;7.80;99.90
796;DHT22;381;48.770;9.188;2023-02-15T14:07:20;7.80;99.90
796;DHT22;381;48.770;9.188;2023-02-15T14:12:35;7.90;99.90
796;DHT22;381;48.770;9.188;2023-02-15T14:17:47;7.90;99.90
796;DHT22;381;48.770;9.188;2023-02-15T14:22:57;8.00;99.90
796;DHT22;381;48.770;9.188;2023-02-15T14:28:07;8.00;99.90
796;DHT22;381;48.770;9.188;2023-02-15T14:33:29;8.10;99.90
796;DHT22;381;48.770;9.188;2023-02-15T14:38:51;8.10;99.90
796;DHT22;381;48.770;9.188;2023-02-15T14:44:00;8.10;99.90
796;DHT22;381;48.770;9.188;2023-02-15T14:49:10;8.20;99.50
796;DHT22;381;48.770;9.188;2023-02-15T14:54:57;8.20;99.60
796;DHT22;381;48.770;9.188;2023-02-15T15:00:01;8.30;99.40
796;DHT22;381;48.770;9.188;2023-02-15T15:05:10;8.30;99.20
796;DHT22;381;48.770;9.188;2023-02-15T15:10:38;8.40;98.50
796;DHT22;381;48.770;9.188;2023-02-15T15:15:45;8.50;98.40
796;DHT22;381;48.770;9.188;2023-02-15T15:20:49;8.50;98.40
796;DHT22;381;48.770;9.188;2023-02-15T15:25:56;8.50;98.40
796;DHT22;381;48.770;9.188;2023-02-15T15:31:02;8.60;98.20
796;DHT22;381;48.770;9.188;2023-02-15T15:41:43;8.60;98.60
796;DHT22;381;48.770;9.188;2023-02-15T15:47:05;8.50;98.80
796;DHT22;381;48.770;9.188;2023-02-15T15:52:13;8.40;99.00
796;DHT22;381;48.770;9.188;2023-02-15T15:57:23;8.40;99.10
796;DHT22;381;48.770;9.188;2023-02-15T16:02:28;8.30;99.20
796;DHT22;381;48.770;9.188;2023-02-15T16:07:30;8.20;99.50
796;DHT22;381;48.770;9.188;2023-02-15T16:12:36;8.10;99.60
796;DHT22;381;48.770;9.188;2023-02-15T16:17:41;8.10;99.70
796;DHT22;381;48.770;9.188;2023-02-15T16:22:45;7.90;99.70
796;DHT22;381;48.770;9.188;2023-02-15T16:27:49;7.80;99.90
796;DHT22;381;48.770;9.188;2023-02-15T16:32:53;7.70;99.90
796;DHT22;381;48.770;9.188;2023-02-15T16:37:56;7.60;99.90
796;DHT22;381;48.770;9.188;2023-02-15T16:43:02;7.50;99.90
796;DHT22;381;48.770;9.188;2023-02-15T16:48:12;7.40;99.90
796;DHT22;381;48.770;9.188;2023-02-15T16:53:20;7.30;99.90
796;DHT22;381;48.770;9.188;2023-02-15T16:58:30;7.20;99.90
796;DHT22;381;48.770;9.188;2023-02-15T17:03:32;7.10;99.90
796;DHT22;381;48.770;9.188;2023-02-15T17:08:42;7.00;99.90
796;DHT22;381;48.770;9.188;2023-02-15T17:19:31;6.80;99.90
796;DHT22;381;48.770;9.188;2023-02-15T17:24:36;6.70;99.80
796;DHT22;381;48.770;9.188;2023-02-15T17:29:40;6.60;99.90
796;DHT22;381;48.770;9.188;2023-02-15T17:35:01;6.60;99.90
796;DHT22;381;48.770;9.188;2023-02-15T17:40:19;6.50;99.90
796;DHT22;381;48.770;9.188;2023-02-15T17:45:22;6.50;99.90
796;DHT22;381;48.770;9.188;2023-02-15T17:50:27;6.50;99.70
796;DHT22;381;48.770;9.188;2023-02-15T17:55:30;6.40;99.70
796;DHT22;381;48.770;9.188;2023-02-15T18:00:44;6.40;99.70
796;DHT22;381;48.770;9.188;2023-02-15T18:06:06;6.30;99.70
796;DHT22;381;48.770;9.188;2023-02-15T18:11:26;6.30;99.80
796;DHT22;381;48.770;9.188;2023-02-15T18:16:41;6.20;99.90
796;DHT22;381;48.770;9.188;2023-02-15T18:21:46;6.20;99.90
796;DHT22;381;48.770;9.188;2023-02-15T18:26:49;6.10;99.90
796;DHT22;381;48.770;9.188;2023-02-15T18:31:53;6.10;99.90
796;DHT22;381;48.770;9.188;2023-02-15T18:36:59;6.10;99.90
796;DHT22;381;48.770;9.188;2023-02-15T18:42:03;6.10;99.90
796;DHT22;381;48.770;9.188;2023-02-15T18:47:05;6.10;99.80
796;DHT22;381;48.770;9.188;2023-02-15T18:52:12;6.10;99.40
796;DHT22;381;48.770;9.188;2023-02-15T18:57:15;6.00;99.30
796;DHT22;381;48.770;9.188;2023-02-15T19:02:18;5.90;99.30
796;DHT22;381;48.770;9.188;2023-02-15T19:07:24;5.80;99.20
796;DHT22;381;48.770;9.188;2023-02-15T19:12:27;5.70;99.60
796;DHT22;381;48.770;9.188;2023-02-15T19:17:30;5.70;99.40
796;DHT22;381;48.770;9.188;2023-02-15T19:22:33;5.70;99.30
796;DHT22;381;48.770;9.188;2023-02-15T19:27:36;5.70;99.00
796;DHT22;381;48.770;9.188;2023-02-15T19:32:38;5.70;99.30
796;DHT22;381;48.770;9.188;2023-02-15T19:37:43;5.70;99.00
796;DHT22;381;48.770;9.188;2023-02-15T19:42:51;5.50;99.60
796;DHT22;381;48.770;9.188;2023-02-15T19:47:54;5.50;99.50
796;DHT22;381;48.770;9.188;2023-02-15T19:52:58;5.60;99.00
796;DHT22;381;48.770;9.188;2023-02-15T19:58:01;5.50;99.40
796;DHT22;381;48.770;9.188;2023-02-15T20:03:03;5.50;99.20
796;DHT22;381;48.770;9.188;2023-02-15T20:08:14;5.50;99.30
796;DHT22;381;48.770;9.188;2023-02-15T20:13:19;5.50;99.20
796;DHT22;381;48.770;9.188;2023-02-15T20:18:21;5.50;99.30
796;DHT22;381;48.770;9.188;2023-02-15T20:23:26;5.50;99.40
796;DHT22;381;48.770;9.188;2023-02-15T20:28:29;5.40;99.50
796;DHT22;381;48.770;9.188;2023-02-15T20:33:32;5.40;99.60
796;DHT22;381;48.770;9.188;2023-02-15T20:38:35;5.40;99.70
796;DHT22;381;48.770;9.188;2023-02-15T20:43:37;5.30;99.70
796;DHT22;381;48.770;9.188;2023-02-15T20:48:51;5.30;99.50
796;DHT22;381;48.770;9.188;2023-02-15T20:53:54;5.20;99.60
796;DHT22;381;48.770;9.188;2023-02-15T20:58:57;5.20;99.70
796;DHT22;381;48.770;9.188;2023-02-15T21:03:59;5.20;99.80
796;DHT22;381;48.770;9.188;2023-02-15T21:09:05;5.10;99.80
796;DHT22;381;48.770;9.188;2023-02-15T21:14:14;5.20;99.70
796;DHT22;381;48.770;9.188;2023-02-15T21:19:18;5.20;99.80
796;DHT22;381;48.770;9.188;2023-02-15T21:24:24;5.10;99.90
796;DHT22;381;48.770;9.188;2023-02-15T21:29:39;5.20;99.80
796;DHT22;381;48.770;9.188;2023-02-15T21:34:41;5.20;99.70
796;DHT22;381;48.770;9.188;2023-02-15T21:39:45;5.20;99.80
796;DHT22;381;48.770;9.188;2023-02-15T21:44:47;5.20;99.80
796;DHT22;381;48.770;9.188;2023-02-15T21:50:10;5.20;99.80
796;DHT22;381;48.770;9.188;2023-02-15T21:55:32;5.20;99.70
796;DHT22;381;48.770;9.188;2023-02-15T22:00:34;5.10;99.90
796;DHT22;381;48.770;9.188;2023-02-15T22:05:37;5.10;99.70
796;DHT22;381;48.770;9.188;2023-02-15T22:10:41;5.00;99.90
796;DHT22;381;48.770;9.188;2023-02-15T22:15:45;5.10;99.70
796;DHT22;381;48.770;9.188;2023-02-15T22:20:48;5.10;99.80
796;DHT22;381;48.770;9.188;2023-02-15T22:25:53;5.10;99.50
796;DHT22;381;48.770;9.188;2023-02-15T22:30:59;5.00;99.80
796;DHT22;381;48.770;9.188;2023-02-15T22:36:02;5.10;99.30
796;DHT22;381;48.770;9.188;2023-02-15T22:41:06;5.00;99.50
796;DHT22;381;48.770;9.188;2023-02-15T22:46:13;4.90;99.40
796;DHT22;381;48.770;9.188;2023-02-15T22:51:19;4.80;99.80
796;DHT22;381;48.770;9.188;2023-02-15T22:56:26;4.70;99.90
796;DHT22;381;48.770;9.188;2023-02-15T23:01:31;4.70;99.90
796;DHT22;381;48.770;9.188;2023-02-15T23:06:33;4.80;99.90
796;DHT22;381;48.770;9.188;2023-02-15T23:11:37;4.80;99.90
796;DHT22;381;48.770;9.188;2023-02-15T23:16:39;4.80;99.90
796;DHT22;381;48.770;9.188;2023-02-15T23:21:41;4.90;99.90
796;DHT22;381;48.770;9.188;2023-02-15T23:26:45;4.90;99.70
796;DHT22;381;48.770;9.188;2023-02-15T23:31:51;4.80;99.90
796;DHT22;381;48.770;9.188;2023-02-15T23:36:54;4.70;99.90
796;DHT22;381;48.770;9.188;2023-02-15T23:41:58;4.60;99.90
796;DHT22;381;48.770;9.188;2023-02-15T23:47:02;4.60;99.90
796;DHT22;381;48.770;9.188;2023-02-15T23:52:07;4.50;99.90
796;DHT22;381;48.770;9.188;2023-02-15T23:57:12;4.50;99.90
